createdAt,value
2019-04-28T00:01:32.395Z,93.00
2019-04-28T00:04:03.398Z,93.00
2019-04-28T00:06:33.936Z,92.80
2019-04-28T00:09:04.807Z,92.80
2019-04-28T00:11:36.646Z,93.00
2019-04-28T00:14:08.481Z,93.00
2019-04-28T00:16:38.732Z,92.90
2019-04-28T00:19:10.904Z,92.90
2019-04-28T00:22:01.973Z,92.70
2019-04-28T00:24:41.482Z,92.90
2019-04-28T00:27:13.497Z,93.00
2019-04-28T00:29:46.290Z,93.00
2019-04-28T00:32:17.565Z,93.20
2019-04-28T00:34:47.643Z,93.20
2019-04-28T00:37:35.016Z,93.50
2019-04-28T00:40:07.506Z,93.40
2019-04-28T00:42:37.554Z,93.30
2019-04-28T00:45:09.217Z,93.20
2019-04-28T00:47:40.859Z,93.20
2019-04-28T00:50:11.779Z,93.40
2019-04-28T00:52:42.048Z,93.30
2019-04-28T00:55:12.028Z,93.40
2019-04-28T00:57:42.028Z,93.50
2019-04-28T01:00:13.910Z,93.30
2019-04-28T01:02:46.948Z,93.30
2019-04-28T01:05:17.150Z,93.30
2019-04-28T01:07:48.446Z,93.10
2019-04-28T01:10:18.913Z,92.90
2019-04-28T01:12:50.884Z,93.20
2019-04-28T01:15:43.423Z,93.00
2019-04-28T01:18:35.496Z,92.60
2019-04-28T01:21:05.570Z,92.60
2019-04-28T01:23:35.581Z,92.70
2019-04-28T01:26:05.652Z,92.80
2019-04-28T01:28:35.669Z,92.70
2019-04-28T01:31:30.574Z,92.60
2019-04-28T01:34:21.233Z,92.40
2019-04-28T01:36:51.686Z,92.10
2019-04-28T01:39:22.056Z,92.50
2019-04-28T01:41:52.018Z,92.20
2019-04-28T01:44:22.442Z,92.20
2019-04-28T01:46:52.441Z,92.30
2019-04-28T01:49:22.424Z,92.30
2019-04-28T01:52:00.540Z,92.40
2019-04-28T01:54:30.483Z,92.90
2019-04-28T01:57:02.399Z,92.90
2019-04-28T01:59:32.872Z,92.60
2019-04-28T02:02:02.925Z,92.50
2019-04-28T02:04:32.979Z,92.50
2019-04-28T02:07:03.303Z,92.30
2019-04-28T02:09:33.440Z,92.00
2019-04-28T02:12:03.411Z,92.00
2019-04-28T02:14:33.395Z,92.00
2019-04-28T02:17:03.455Z,92.00
2019-04-28T02:19:33.441Z,91.80
2019-04-28T02:22:21.909Z,91.70
2019-04-28T02:24:52.024Z,91.80
2019-04-28T02:27:22.258Z,92.00
2019-04-28T02:29:54.623Z,92.40
2019-04-28T02:32:24.662Z,92.10
2019-04-28T02:35:00.820Z,92.00
2019-04-28T02:37:30.530Z,91.80
2019-04-28T02:40:03.537Z,92.00
2019-04-28T02:42:32.828Z,91.90
2019-04-28T02:45:02.905Z,92.00
2019-04-28T02:47:34.158Z,92.10
2019-04-28T02:50:14.745Z,91.90
2019-04-28T02:53:01.652Z,92.00
2019-04-28T02:55:31.833Z,91.90
2019-04-28T02:58:01.947Z,91.90
2019-04-28T03:00:32.169Z,92.00
2019-04-28T03:03:02.175Z,92.00
2019-04-28T03:05:33.363Z,92.10
2019-04-28T03:08:03.826Z,92.00
2019-04-28T03:10:34.068Z,92.10
2019-04-28T03:13:04.236Z,92.00
2019-04-28T03:15:34.273Z,92.40
2019-04-28T03:18:04.341Z,92.10
2019-04-28T03:20:34.907Z,92.10
2019-04-28T03:23:08.950Z,92.10
2019-04-28T03:25:46.721Z,92.20
2019-04-28T03:28:30.785Z,92.30
2019-04-28T03:31:55.250Z,92.50
2019-04-28T03:34:04.137Z,92.60
2019-04-28T03:36:33.657Z,92.70
2019-04-28T03:39:06.338Z,92.70
2019-04-28T03:41:36.954Z,92.80
2019-04-28T03:44:07.025Z,92.70
2019-04-28T03:46:42.466Z,92.70
2019-04-28T03:49:31.471Z,92.50
2019-04-28T03:52:02.841Z,92.50
2019-04-28T03:54:33.019Z,92.70
2019-04-28T03:57:03.034Z,92.70
2019-04-28T03:59:33.299Z,92.70
2019-04-28T04:02:03.610Z,92.80
2019-04-28T04:04:33.645Z,92.90
2019-04-28T04:07:03.678Z,92.80
2019-04-28T04:10:00.993Z,92.80
2019-04-28T04:12:45.449Z,92.80
2019-04-28T04:15:54.411Z,93.00
2019-04-28T04:18:34.280Z,93.30
2019-04-28T04:21:04.297Z,93.20
2019-04-28T04:23:34.589Z,93.00
2019-04-28T04:26:04.610Z,93.10
2019-04-28T04:28:34.607Z,93.10
2019-04-28T04:31:04.656Z,92.90
2019-04-28T04:33:34.660Z,92.90
2019-04-28T04:36:04.738Z,93.00
2019-04-28T04:38:34.719Z,92.90
2019-04-28T04:41:04.786Z,92.80
2019-04-28T04:43:34.745Z,92.70
2019-04-28T04:46:22.750Z,92.70
2019-04-28T04:48:53.389Z,92.60
2019-04-28T04:51:23.403Z,92.70
2019-04-28T04:53:53.385Z,92.80
2019-04-28T04:56:23.505Z,92.90
2019-04-28T04:58:53.545Z,92.90
2019-04-28T05:01:32.394Z,92.80
2019-04-28T05:04:10.332Z,92.80
2019-04-28T05:06:41.482Z,92.80
2019-04-28T05:09:12.192Z,92.60
2019-04-28T05:11:42.189Z,92.50
2019-04-28T05:14:12.267Z,92.60
2019-04-28T05:16:42.319Z,92.70
2019-04-28T05:19:12.345Z,92.50
2019-04-28T05:21:42.404Z,92.30
2019-04-28T05:24:27.528Z,92.20
2019-04-28T05:26:59.471Z,92.10
2019-04-28T05:29:30.609Z,91.90
2019-04-28T05:32:03.320Z,91.80
2019-04-28T05:34:32.613Z,91.80
2019-04-28T05:37:02.626Z,91.70
2019-04-28T05:39:33.517Z,91.70
2019-04-28T05:42:03.590Z,91.70
2019-04-28T05:44:33.693Z,91.30
2019-04-28T05:47:03.776Z,91.10
2019-04-28T05:50:01.902Z,90.70
2019-04-28T05:52:51.009Z,90.30
2019-04-28T05:55:25.411Z,90.00
2019-04-28T05:58:07.597Z,89.80
2019-04-28T06:01:05.850Z,88.40
2019-04-28T06:03:37.865Z,87.10
2019-04-28T06:06:10.127Z,85.60
2019-04-28T06:08:54.553Z,84.70
2019-04-28T06:11:39.666Z,85.10
2019-04-28T06:14:10.175Z,84.00
2019-04-28T06:16:40.849Z,83.90
2019-04-28T06:19:11.025Z,83.80
2019-04-28T06:21:41.000Z,84.20
2019-04-28T06:24:13.161Z,84.00
2019-04-28T06:26:43.121Z,84.30
2019-04-28T06:29:13.121Z,84.40
2019-04-28T06:31:43.258Z,84.50
2019-04-28T06:34:13.285Z,84.90
2019-04-28T06:36:43.324Z,84.30
2019-04-28T06:39:13.326Z,83.70
2019-04-28T06:41:43.397Z,82.80
2019-04-28T06:44:14.741Z,82.70
2019-04-28T06:46:44.792Z,81.40
2019-04-28T06:49:14.820Z,80.90
2019-04-28T06:51:45.797Z,80.60
2019-04-28T06:54:15.873Z,79.60
2019-04-28T06:56:46.792Z,78.70
2019-04-28T06:59:16.918Z,79.10
2019-04-28T07:01:47.350Z,79.40
2019-04-28T07:04:17.356Z,79.40
2019-04-28T07:06:47.684Z,79.50
2019-04-28T07:09:17.805Z,79.60
2019-04-28T07:11:47.841Z,79.00
2019-04-28T07:14:17.813Z,79.00
2019-04-28T07:16:49.882Z,79.30
2019-04-28T07:19:20.637Z,79.40
2019-04-28T07:22:09.662Z,79.50
2019-04-28T07:24:40.081Z,79.10
2019-04-28T07:27:10.172Z,79.10
2019-04-28T07:29:40.476Z,78.90
2019-04-28T07:32:10.557Z,78.60
2019-04-28T07:34:40.648Z,79.00
2019-04-28T07:37:10.693Z,78.40
2019-04-28T07:39:41.785Z,78.00
2019-04-28T07:42:11.870Z,77.70
2019-04-28T07:44:41.922Z,77.00
2019-04-28T07:47:12.013Z,76.50
2019-04-28T07:49:42.093Z,76.80
2019-04-28T07:52:20.307Z,76.80
2019-04-28T07:54:50.303Z,76.20
2019-04-28T07:57:20.380Z,75.90
2019-04-28T07:59:50.413Z,75.00
2019-04-28T08:02:20.549Z,75.00
2019-04-28T08:04:50.476Z,74.50
2019-04-28T08:07:20.493Z,73.90
2019-04-28T08:09:50.584Z,73.70
2019-04-28T08:12:23.870Z,73.40
2019-04-28T08:14:53.894Z,74.40
2019-04-28T08:17:23.940Z,72.50
2019-04-28T08:19:54.002Z,71.00
2019-04-28T08:22:24.091Z,71.30
2019-04-28T08:24:54.209Z,70.80
2019-04-28T08:27:24.316Z,70.40
2019-04-28T08:29:58.781Z,70.70
2019-04-28T08:32:37.457Z,71.30
2019-04-28T08:35:07.983Z,70.40
2019-04-28T08:37:38.007Z,70.10
2019-04-28T08:40:08.228Z,68.10
2019-04-28T08:42:38.614Z,66.20
2019-04-28T08:45:08.965Z,64.30
2019-04-28T08:47:39.754Z,63.50
2019-04-28T08:50:10.494Z,63.70
2019-04-28T08:52:41.002Z,63.90
2019-04-28T08:55:12.797Z,62.60
2019-04-28T08:57:42.802Z,62.50
2019-04-28T09:00:13.720Z,61.40
2019-04-28T09:02:43.772Z,61.20
2019-04-28T09:05:13.908Z,61.10
2019-04-28T09:07:44.006Z,61.80
2019-04-28T09:10:14.821Z,61.30
2019-04-28T09:12:44.837Z,62.80
2019-04-28T09:15:15.326Z,62.90
2019-04-28T09:17:45.398Z,63.30
2019-04-28T09:20:15.490Z,63.70
2019-04-28T09:22:45.610Z,63.00
2019-04-28T09:25:15.685Z,63.30
2019-04-28T09:27:46.262Z,62.70
2019-04-28T09:30:16.442Z,64.50
2019-04-28T09:32:46.520Z,64.90
2019-04-28T09:35:16.530Z,63.70
2019-04-28T09:37:46.905Z,64.50
2019-04-28T09:40:17.560Z,64.70
2019-04-28T09:43:05.257Z,64.10
2019-04-28T09:45:54.593Z,62.40
2019-04-28T09:48:25.858Z,61.20
2019-04-28T09:50:56.006Z,59.70
2019-04-28T09:53:27.499Z,56.80
2019-04-28T09:55:57.846Z,50.30
2019-04-28T09:58:28.440Z,47.40
2019-04-28T10:00:58.650Z,47.00
2019-04-28T10:03:32.192Z,49.90
2019-04-28T10:06:02.276Z,50.20
2019-04-28T10:08:32.409Z,49.20
2019-04-28T10:11:02.487Z,47.40
2019-04-28T10:13:32.674Z,46.70
2019-04-28T10:16:02.737Z,47.20
2019-04-28T10:18:32.817Z,46.70
2019-04-28T10:21:02.845Z,45.40
2019-04-28T10:23:32.956Z,45.40
2019-04-28T10:26:03.159Z,45.10
2019-04-28T10:28:33.258Z,45.00
2019-04-28T10:31:03.910Z,45.00
2019-04-28T10:33:33.989Z,46.40
2019-04-28T10:36:04.345Z,46.20
2019-04-28T10:38:34.525Z,46.60
2019-04-28T10:41:09.216Z,48.00
2019-04-28T10:43:39.486Z,49.80
2019-04-28T10:46:09.453Z,51.50
2019-04-28T10:48:39.735Z,52.60
2019-04-28T10:51:10.396Z,54.60
2019-04-28T10:53:40.481Z,55.10
2019-04-28T10:56:12.034Z,55.90
2019-04-28T10:58:44.674Z,57.60
2019-04-28T11:01:14.738Z,60.50
2019-04-28T11:03:46.863Z,62.40
2019-04-28T11:06:17.342Z,63.90
2019-04-28T11:09:09.438Z,62.80
2019-04-28T11:11:39.769Z,63.60
2019-04-28T11:14:10.893Z,64.20
2019-04-28T11:16:42.514Z,65.00
2019-04-28T11:19:13.250Z,66.00
2019-04-28T11:21:43.509Z,66.30
2019-04-28T11:24:13.502Z,65.70
2019-04-28T11:26:43.543Z,65.70
2019-04-28T11:29:17.302Z,66.40
2019-04-28T11:31:47.354Z,65.60
2019-04-28T11:34:32.800Z,64.30
2019-04-28T11:37:02.838Z,62.50
2019-04-28T11:39:35.725Z,62.20
2019-04-28T11:42:05.802Z,63.30
2019-04-28T11:44:36.565Z,64.40
2019-04-28T11:47:09.386Z,63.00
2019-04-28T11:49:39.444Z,63.00
2019-04-28T11:52:09.747Z,61.60
2019-04-28T11:54:40.151Z,60.80
2019-04-28T11:57:10.603Z,58.50
2019-04-28T11:59:40.614Z,58.20
2019-04-28T12:02:10.984Z,59.20
2019-04-28T12:04:42.126Z,57.90
2019-04-28T12:07:12.173Z,57.50
2019-04-28T12:10:04.786Z,57.60
2019-04-28T12:12:51.882Z,57.80
2019-04-28T12:15:40.914Z,56.50
2019-04-28T12:18:36.016Z,54.30
2019-04-28T12:21:06.068Z,53.90
2019-04-28T12:23:36.065Z,53.90
2019-04-28T12:26:06.685Z,53.80
2019-04-28T12:28:39.904Z,54.20
2019-04-28T12:31:10.209Z,52.90
2019-04-28T12:33:40.583Z,52.50
2019-04-28T12:36:10.635Z,51.90
2019-04-28T12:38:41.044Z,50.30
2019-04-28T12:41:11.209Z,49.70
2019-04-28T12:43:41.169Z,49.20
2019-04-28T12:46:11.177Z,49.60
2019-04-28T12:48:41.262Z,49.50
2019-04-28T12:51:11.623Z,51.60
2019-04-28T12:53:41.619Z,50.30
2019-04-28T12:56:11.763Z,50.70
2019-04-28T12:58:41.721Z,50.50
2019-04-28T13:01:33.501Z,50.40
2019-04-28T13:04:11.139Z,50.70
2019-04-28T13:06:41.337Z,51.90
2019-04-28T13:09:11.389Z,52.30
2019-04-28T13:11:42.221Z,52.00
2019-04-28T13:14:13.165Z,51.40
2019-04-28T13:16:43.196Z,50.80
2019-04-28T13:19:13.374Z,50.90
2019-04-28T13:21:43.597Z,50.50
2019-04-28T13:24:13.619Z,50.30
2019-04-28T13:26:43.818Z,50.30
2019-04-28T13:29:15.208Z,50.80
2019-04-28T13:31:45.259Z,49.70
2019-04-28T13:34:17.830Z,49.30
2019-04-28T13:36:47.858Z,48.70
2019-04-28T13:39:43.144Z,48.70
2019-04-28T13:42:13.178Z,49.30
2019-04-28T13:44:53.069Z,49.30
2019-04-28T13:47:23.192Z,51.00
2019-04-28T13:49:56.899Z,51.10
2019-04-28T13:52:26.903Z,51.40
2019-04-28T13:55:23.008Z,51.70
2019-04-28T13:57:53.177Z,50.70
2019-04-28T14:00:30.983Z,50.40
2019-04-28T14:03:19.807Z,51.40
2019-04-28T14:05:59.909Z,52.30
2019-04-28T14:08:29.892Z,53.20
2019-04-28T14:10:59.806Z,51.40
2019-04-28T14:13:29.816Z,50.30
2019-04-28T14:15:59.942Z,49.90
2019-04-28T14:18:30.011Z,51.30
2019-04-28T14:21:00.113Z,51.30
2019-04-28T14:23:31.373Z,50.30
2019-04-28T14:26:01.666Z,49.30
2019-04-28T14:28:31.634Z,47.80
2019-04-28T14:31:01.682Z,47.60
2019-04-28T14:33:31.949Z,48.80
2019-04-28T14:36:01.915Z,49.00
2019-04-28T14:38:32.960Z,48.90
2019-04-28T14:41:03.029Z,49.10
2019-04-28T14:43:33.078Z,48.80
2019-04-28T14:46:03.242Z,49.70
2019-04-28T14:48:33.105Z,50.80
2019-04-28T14:51:03.145Z,51.20
2019-04-28T14:53:33.521Z,51.10
2019-04-28T14:56:03.498Z,51.60
2019-04-28T14:58:33.588Z,52.50
2019-04-28T15:01:14.039Z,52.20
2019-04-28T15:03:46.721Z,51.40
2019-04-28T15:06:25.565Z,50.50
2019-04-28T15:09:13.526Z,50.70
2019-04-28T15:11:47.506Z,50.10
2019-04-28T15:14:17.736Z,49.60
2019-04-28T15:16:49.268Z,49.80
2019-04-28T15:19:19.264Z,48.60
2019-04-28T15:21:49.305Z,47.60
2019-04-28T15:24:19.245Z,47.80
2019-04-28T15:26:51.172Z,47.20
2019-04-28T15:29:21.128Z,46.30
2019-04-28T15:31:52.690Z,46.30
2019-04-28T15:34:23.287Z,45.90
2019-04-28T15:36:53.524Z,47.70
2019-04-28T15:39:23.819Z,45.80
2019-04-28T15:41:53.829Z,44.60
2019-04-28T15:44:24.780Z,45.10
2019-04-28T15:46:54.782Z,44.70
2019-04-28T15:49:24.837Z,45.10
2019-04-28T15:51:54.825Z,46.00
2019-04-28T15:54:24.921Z,45.50
2019-04-28T15:56:55.543Z,45.60
2019-04-28T15:59:25.844Z,46.00
2019-04-28T16:01:55.821Z,45.30
2019-04-28T16:04:25.924Z,45.60
2019-04-28T16:06:55.930Z,44.90
2019-04-28T16:09:26.054Z,44.80
2019-04-28T16:11:56.311Z,45.10
2019-04-28T16:14:26.612Z,46.00
2019-04-28T16:16:56.552Z,46.90
2019-04-28T16:19:27.319Z,47.90
2019-04-28T16:21:57.374Z,48.80
2019-04-28T16:24:27.400Z,49.20
2019-04-28T16:26:57.389Z,48.80
2019-04-28T16:29:28.612Z,49.10
2019-04-28T16:31:59.085Z,48.90
2019-04-28T16:34:29.469Z,48.50
2019-04-28T16:36:59.418Z,49.50
2019-04-28T16:39:29.344Z,50.10
2019-04-28T16:41:59.233Z,50.50
2019-04-28T16:44:29.554Z,50.90
2019-04-28T16:46:59.528Z,51.10
2019-04-28T16:49:29.528Z,51.10
2019-04-28T16:51:59.425Z,51.70
2019-04-28T16:54:29.503Z,52.80
2019-04-28T16:57:12.037Z,54.10
2019-04-28T16:59:54.809Z,54.00
2019-04-28T17:02:32.820Z,54.80
2019-04-28T17:05:02.909Z,56.40
2019-04-28T17:07:32.952Z,56.00
2019-04-28T17:10:03.068Z,55.50
2019-04-28T17:12:33.154Z,55.80
2019-04-28T17:15:03.140Z,56.60
2019-04-28T17:17:34.178Z,57.00
2019-04-28T17:20:04.876Z,56.90
2019-04-28T17:22:36.035Z,57.80
2019-04-28T17:25:06.291Z,57.60
2019-04-28T17:27:36.277Z,58.60
2019-04-28T17:30:07.686Z,60.00
2019-04-28T17:32:37.722Z,59.90
2019-04-28T17:35:07.838Z,59.60
2019-04-28T17:37:37.803Z,60.80
2019-04-28T17:40:07.933Z,60.70
2019-04-28T17:42:38.222Z,59.20
2019-04-28T17:45:08.655Z,59.90
2019-04-28T17:47:38.718Z,59.80
2019-04-28T17:50:10.163Z,58.60
2019-04-28T17:52:40.152Z,58.50
2019-04-28T17:55:14.906Z,59.10
2019-04-28T17:57:44.870Z,58.50
2019-04-28T18:00:40.529Z,59.40
2019-04-28T18:03:38.705Z,60.80
2019-04-28T18:06:19.256Z,62.00
2019-04-28T18:08:49.440Z,60.80
2019-04-28T18:11:19.408Z,61.60
2019-04-28T18:13:49.389Z,63.80
2019-04-28T18:16:47.357Z,64.90
2019-04-28T18:19:19.050Z,66.50
2019-04-28T18:21:49.078Z,67.80
2019-04-28T18:24:19.148Z,68.40
2019-04-28T18:26:49.176Z,69.00
2019-04-28T18:29:19.142Z,68.70
2019-04-28T18:32:08.469Z,68.60
2019-04-28T18:35:00.824Z,69.40
2019-04-28T18:37:51.122Z,70.90
2019-04-28T18:40:31.405Z,72.00
2019-04-28T18:43:29.317Z,72.80
2019-04-28T18:45:59.373Z,71.80
2019-04-28T18:48:29.451Z,72.70
2019-04-28T18:50:59.467Z,74.80
2019-04-28T18:53:29.741Z,73.40
2019-04-28T18:56:00.025Z,73.50
2019-04-28T18:58:30.009Z,74.20
2019-04-28T19:01:10.158Z,74.50
2019-04-28T19:03:40.160Z,75.10
2019-04-28T19:06:22.324Z,75.80
2019-04-28T19:08:57.619Z,75.50
2019-04-28T19:11:46.997Z,76.00
2019-04-28T19:14:30.951Z,75.50
2019-04-28T19:17:21.120Z,75.60
2019-04-28T19:19:51.103Z,76.50
2019-04-28T19:22:21.126Z,77.20
2019-04-28T19:24:51.201Z,77.50
2019-04-28T19:27:21.229Z,77.10
2019-04-28T19:29:51.283Z,76.60
2019-04-28T19:32:22.385Z,76.50
2019-04-28T19:34:52.418Z,76.50
2019-04-28T19:37:22.510Z,76.30
2019-04-28T19:39:52.498Z,76.00
2019-04-28T19:42:22.621Z,75.70
2019-04-28T19:44:52.610Z,75.90
2019-04-28T19:47:22.667Z,76.30
2019-04-28T19:49:52.739Z,76.90
2019-04-28T19:52:22.886Z,77.40
2019-04-28T19:55:09.498Z,77.70
2019-04-28T19:58:01.435Z,78.20
2019-04-28T20:00:39.466Z,78.60
2019-04-28T20:03:11.147Z,79.00
2019-04-28T20:05:41.142Z,79.80
2019-04-28T20:08:11.150Z,80.40
2019-04-28T20:10:41.224Z,81.10
2019-04-28T20:13:11.523Z,81.20
2019-04-28T20:15:41.683Z,81.10
2019-04-28T20:18:11.783Z,82.40
2019-04-28T20:20:41.788Z,81.90
2019-04-28T20:23:12.846Z,82.30
2019-04-28T20:25:42.895Z,82.30
2019-04-28T20:28:13.007Z,82.50
2019-04-28T20:30:42.979Z,82.60
2019-04-28T20:33:13.054Z,82.60
2019-04-28T20:35:48.366Z,82.70
2019-04-28T20:38:28.243Z,82.80
2019-04-28T20:41:12.595Z,83.30
2019-04-28T20:43:42.667Z,83.60
2019-04-28T20:46:12.571Z,83.80
2019-04-28T20:48:42.645Z,84.90
2019-04-28T20:51:12.690Z,84.30
2019-04-28T20:53:42.740Z,84.70
2019-04-28T20:56:12.843Z,84.90
2019-04-28T20:58:42.848Z,85.10
2019-04-28T21:01:12.883Z,85.40
2019-04-28T21:03:42.874Z,85.70
2019-04-28T21:06:12.852Z,86.20
2019-04-28T21:08:42.851Z,86.90
2019-04-28T21:11:12.910Z,87.70
2019-04-28T21:13:43.351Z,88.10
2019-04-28T21:16:13.320Z,88.50
2019-04-28T21:18:43.404Z,89.20
2019-04-28T21:21:13.467Z,89.80
2019-04-28T21:23:43.596Z,89.70
2019-04-28T21:26:13.579Z,89.70
2019-04-28T21:28:43.580Z,89.70
2019-04-28T21:31:13.646Z,89.80
2019-04-28T21:33:43.644Z,90.00
2019-04-28T21:36:13.670Z,90.00
2019-04-28T21:38:43.679Z,90.00
2019-04-28T21:41:15.124Z,90.00
2019-04-28T21:43:51.130Z,90.10
2019-04-28T21:46:45.975Z,90.20
2019-04-28T21:49:25.035Z,90.30
2019-04-28T21:51:55.058Z,90.60
2019-04-28T21:54:25.051Z,90.50
2019-04-28T21:56:55.100Z,90.60
2019-04-28T21:59:25.092Z,90.70
2019-04-28T22:01:55.487Z,90.70
2019-04-28T22:04:25.543Z,90.90
2019-04-28T22:06:55.599Z,90.90
2019-04-28T22:09:26.097Z,91.10
2019-04-28T22:11:56.092Z,91.20
2019-04-28T22:14:27.234Z,91.40
2019-04-28T22:16:57.224Z,91.50
2019-04-28T22:19:27.218Z,91.60
2019-04-28T22:21:57.278Z,91.80
2019-04-28T22:24:35.743Z,92.00
2019-04-28T22:27:06.440Z,92.10
2019-04-28T22:29:36.583Z,92.30
2019-04-28T22:32:06.638Z,92.50
2019-04-28T22:34:36.622Z,92.60
2019-04-28T22:37:06.603Z,92.70
2019-04-28T22:39:36.598Z,92.80
2019-04-28T22:42:08.391Z,92.90
2019-04-28T22:44:38.463Z,93.00
2019-04-28T22:47:08.499Z,93.30
2019-04-28T22:49:38.579Z,93.20
2019-04-28T22:52:08.563Z,93.40
2019-04-28T22:55:06.666Z,93.50
2019-04-28T22:57:47.437Z,93.60
2019-04-28T23:00:52.059Z,93.50
2019-04-28T23:03:37.259Z,93.60
2019-04-28T23:06:10.322Z,93.70
2019-04-28T23:08:38.935Z,93.70
2019-04-28T23:11:08.939Z,94.00
2019-04-28T23:13:38.931Z,94.10
2019-04-28T23:16:09.030Z,93.90
2019-04-28T23:18:39.280Z,94.00
2019-04-28T23:21:27.194Z,94.00
2019-04-28T23:23:57.181Z,94.00
2019-04-28T23:26:27.239Z,94.10
2019-04-28T23:28:58.068Z,94.40
2019-04-28T23:31:28.157Z,94.30
2019-04-28T23:33:58.040Z,94.30
2019-04-28T23:36:28.441Z,94.30
2019-04-28T23:38:59.548Z,94.30
2019-04-28T23:41:57.712Z,94.30
2019-04-28T23:44:27.815Z,94.40
2019-04-28T23:46:58.956Z,94.50
2019-04-28T23:49:30.594Z,94.60
2019-04-28T23:52:19.620Z,95.00
2019-04-28T23:54:51.327Z,94.50
2019-04-28T23:57:21.639Z,94.70
2019-04-28T23:59:52.461Z,94.60
